OITR

Urmia Airport

Urmia, Iran
TAF OITR 232300Z 2400/2506 24004MPS 8000 FEW040 BECMG 2404/2406 FEW030CB FEW035 BKN090 TEMPO 2406/2414 24009MPS 4000 TSRA SCT030CB SCT035 BKN090 TEMPO 2421/2506 24009MPS 4000 TSRA SCT030CB SCT035 BKN090
Issued Valid From Valid To
Oct-23 @ 23:00 UTC
(6 hours ago)
Oct-24 @ 00:00 UTC
(5 hours ago)
Oct-25 @ 06:00 UTC
(-1 days ago)
Expired Click to View Oct-24 @ 00:00 to Oct-24 @ 04:00
TAF OITR 232300Z 2400/2506 24004MPS 8000 FEW040
Wind Visibility Clouds
240° at 8 knots 7,998 meters
  • Few at 4,000' AGL
Becoming Oct-24 @ 04:00 to Oct-25 @ 06:00
BECMG 2404/2406 FEW030CB FEW035 BKN090
Wind Visibility Clouds
240° at 8 knots 7,998 meters
  • Few at 3,000' AGL
  • Few at 3,500' AGL
  • Broken at 9,000' AGL
Temporary Oct-24 @ 06:00 to Oct-24 @ 14:00
TEMPO 2406/2414 24009MPS 4000 TSRA SCT030CB SCT035 BKN090
Wind Visibility Clouds Conditions
240° at 17 knots 4,007 meters
  • Scattered at 3,000' AGL
  • Scattered at 3,500' AGL
  • Broken at 9,000' AGL
  • Thunderstorm
  • Rain
Temporary Oct-24 @ 21:00 to Oct-25 @ 06:00
TEMPO 2421/2506 24009MPS 4000 TSRA SCT030CB SCT035 BKN090
Wind Visibility Clouds Conditions
240° at 17 knots 4,007 meters
  • Scattered at 3,000' AGL
  • Scattered at 3,500' AGL
  • Broken at 9,000' AGL
  • Thunderstorm
  • Rain
TAF OITR 232300Z 2400/2506 24004MPS 8000 FEW040 BECMG 2404/2406 FEW030CB FEW035 BKN090 TEMPO 2406/2414 24009MPS 4000 TSRA SCT030CB SCT035 BKN090 TEMPO 2421/2506 24009MPS 4000 TSRA SCT030CB SCT035 BKN090
Issued Oct-23 @ 23:00 UTC
(6 hours ago)
Valid From Oct-24 @ 00:00 UTC
(5 hours ago)
Valid To Oct-25 @ 06:00 UTC
(-1 days ago)
Oct-24 @ 00:00 - Oct-24 @ 04:00
Wind Visibility
240° at 8 knots 7,998 meters
Clouds
  • Few at 4,000' AGL
Becoming Oct-24 @ 04:00 - Oct-25 @ 06:00
Wind Visibility
240° at 8 knots 7,998 meters
Clouds
  • Few at 3,000' AGL
  • Few at 3,500' AGL
  • Broken at 9,000' AGL
Temporary Oct-24 @ 06:00 - Oct-24 @ 14:00
Wind Visibility
240° at 17 knots 4,007 meters
Clouds
  • Scattered at 3,000' AGL
  • Scattered at 3,500' AGL
  • Broken at 9,000' AGL
Conditions
  • Thunderstorm
  • Rain
Temporary Oct-24 @ 21:00 - Oct-25 @ 06:00
Wind Visibility
240° at 17 knots 4,007 meters
Clouds
  • Scattered at 3,000' AGL
  • Scattered at 3,500' AGL
  • Broken at 9,000' AGL
Conditions
  • Thunderstorm
  • Rain